Airfield :
LOGIN :

Register | Disclaimer

   EN    FR    IT 

 










Legend :    VFR   Marginal VFR   IFR   Intensive IFR   Very Intensive IFR
Visi :
Ceiling :
>= 8 km
>= 3000ft
5 to 8 km
1000 to 3000 ft
1500m to 5 km
500 to 1000 ft
800 to 1500m
200 to 500 ft
< 800m
< 200 ft
Symbols :   Thunderstorms  Fog  Heavy snow  Heavy precipitations  Wind > 20 kt
SIGMETs :     Misc.  Thunderstorms  Icing  Turbulence  Mountain Waves  Volcanic Ashes






- Airport Elevation : 138 ft
- IATA code : BIO


LEBB - Bilbao

CURRENT METAR :
  • 111600Z 07005KT 010V120 9999 -RA FEW040 24/19 Q1013 TEMPO SCT030CB

EXPIRED METARs :
  • 111530Z VRB02KT 9999 -RA FEW040 SCT065 23/19 Q1013 TEMPO 3000 TSRA BKN030CB
  • 111500Z VRB07KT 9999 -RA FEW040 SCT065 24/18 Q1013 TEMPO 3000 TSRA BKN030CB
  • 111430Z 22012KT 140V260 9999 FEW040 SCT065 24/18 Q1014 TEMPO SHRA SCT030CB
  • 111400Z 24020G31KT 200V290 9999 FEW040CB 28/16 Q1013 TEMPO 3000 TSRA BKN030CB
  • 111330Z 28010KT 260V320 9999 FEW040 28/22 Q1012 TEMPO VRB18G32KT 3000 TSRA BKN030CB

TAF AMD TAF LEBB
Valid from the 11 at 13:00 until the 12 at 12:00 UTC


111358Z 1113/1212 27009KT 9999 FEW030 SCT045 TX34/1113Z TN20/1206Z
TEMPO 1113/1118 33012KT SCT030TCU
TEMPO 1114/1120 24018G32KT 3000 SHRA TS FEW030CB BKN035TCU
TEMPO 1120/1206 3000 -SHRA BR SCT030TCU
PROB30
TEMPO 1202/1206 SHRA TS SCT035CB



MET'MAP, your aeronautical weather chart ! - Copyright ORBIFLY December 2007 - Disclaimer

ORBIFLY MET'MAP TEAM :

Programming & Development : Alexandra Zaïnal
Concept & original design : Baudouin d'Aumeries
Assistance for programming : Marc-Olivier Méhu
Technical & hardware support : Manuel Goepfert

Contact : metmap@orbifly.com




SOURCES & CREDITS :

   NOAA